Time;durP1;ratioP1;P1;durP2;ratioP2;P2;SDS_P1;SDS_P2;PMS_P1;PMS_P2;Temp;Humidity;BMP_temperature;BMP_pressure;BME280_temperature;BME280_humidity;BME280_pressure;Samples;Min_cycle;Max_cycle;Signal;HPM_P1;HPM_P2
2021/11/16 00:02:15;;;;;;;35.92;22.52;;;29.00;83.00;;;;;;5147501;27;20023;-41
2021/11/16 00:04:42;;;;;;;26.48;16.02;;;29.00;83.00;;;;;;5142750;27;20027;-43
2021/11/16 00:07:09;;;;;;;26.67;14.40;;;28.90;82.80;;;;;;5132411;27;20027;-43
2021/11/16 00:09:37;;;;;;;29.38;15.10;;;28.90;82.70;;;;;;5120703;28;20092;-47
2021/11/16 00:12:04;;;;;;;25.63;16.75;;;28.80;83.00;;;;;;5107343;28;20300;-45
2021/11/16 00:14:31;;;;;;;27.98;17.20;;;28.80;83.00;;;;;;5106551;28;20036;-45
2021/11/16 00:16:58;;;;;;;22.58;16.20;;;28.70;83.20;;;;;;5131199;27;20236;-42
2021/11/16 00:19:27;;;;;;;73.72;35.50;;;28.70;83.20;;;;;;5146645;27;20051;-44
2021/11/16 00:21:56;;;;;;;42.42;25.60;;;28.60;83.40;;;;;;5128461;27;20024;-42
2021/11/16 00:25:06;;;;;;;37.42;23.13;;;28.70;83.00;;;;;;5109917;28;20027;-49
2021/11/16 00:27:11;;;;;;;42.38;30.45;;;28.70;82.70;;;;;;5108191;28;20039;-46
2021/11/16 00:29:38;;;;;;;48.45;28.23;;;28.70;82.60;;;;;;5120857;28;20051;-45
2021/11/16 00:32:06;;;;;;;42.45;26.30;;;28.70;82.50;;;;;;5124299;28;20242;-49
2021/11/16 00:34:33;;;;;;;35.40;25.77;;;28.70;82.40;;;;;;5122304;28;20107;-47
2021/11/16 00:37:00;;;;;;;44.03;31.00;;;28.70;82.20;;;;;;5124290;28;20189;-45
2021/11/16 00:39:27;;;;;;;31.88;21.27;;;28.70;82.00;;;;;;5125643;28;20028;-42
2021/11/16 00:41:53;;;;;;;34.72;21.05;;;28.70;81.90;;;;;;5126366;28;20026;-45
2021/11/16 00:44:20;;;;;;;29.38;18.20;;;28.70;81.90;;;;;;5125361;28;20051;-44
2021/11/16 00:46:47;;;;;;;26.35;15.52;;;28.70;81.70;;;;;;5125975;28;20086;-43
2021/11/16 00:49:13;;;;;;;28.55;16.10;;;28.60;81.50;;;;;;5126276;28;20035;-46
2021/11/16 00:51:41;;;;;;;24.20;13.98;;;28.60;81.40;;;;;;5126018;28;20210;-43
2021/11/16 00:54:08;;;;;;;20.63;12.50;;;28.60;81.40;;;;;;5125872;28;20100;-44
2021/11/16 00:56:35;;;;;;;25.80;14.38;;;28.60;81.00;;;;;;5125951;28;20080;-44
2021/11/16 00:59:03;;;;;;;22.95;11.60;;;28.60;80.80;;;;;;5126144;28;20233;-51
2021/11/16 01:01:30;;;;;;;23.25;12.32;;;28.60;80.60;;;;;;5125593;28;20019;-43
2021/11/16 01:04:00;;;;;;;20.88;11.68;;;28.60;80.40;;;;;;5123608;28;20035;-42
2021/11/16 01:06:27;;;;;;;16.90;10.75;;;28.60;80.00;;;;;;5115577;28;20071;-43
2021/11/16 01:08:53;;;;;;;16.20;9.73;;;28.60;79.90;;;;;;5125867;28;20024;-47
2021/11/16 01:11:20;;;;;;;17.30;11.07;;;28.60;79.40;;;;;;5118885;28;20019;-50
2021/11/16 01:13:47;;;;;;;20.30;9.55;;;28.50;79.30;;;;;;5108611;28;20024;-43
2021/11/16 01:16:14;;;;;;;17.48;8.88;;;28.50;79.10;;;;;;5104964;28;20020;-47
2021/11/16 01:18:41;;;;;;;14.32;8.68;;;28.50;79.00;;;;;;5105236;28;20316;-42
2021/11/16 01:21:08;;;;;;;19.70;8.02;;;28.50;78.70;;;;;;5105150;28;20016;-42
2021/11/16 01:23:35;;;;;;;15.02;8.73;;;28.50;78.70;;;;;;5104902;28;20028;-42
2021/11/16 01:26:02;;;;;;;13.70;9.32;;;28.40;78.70;;;;;;5104856;28;20074;-42
2021/11/16 01:28:29;;;;;;;16.42;9.02;;;28.50;78.70;;;;;;5104819;28;20032;-43
2021/11/16 01:30:59;;;;;;;15.60;9.88;;;28.40;78.60;;;;;;5104853;28;20020;-44
2021/11/16 01:33:52;;;;;;;14.43;8.50;;;28.40;78.80;;;;;;5105155;28;20039;-48
2021/11/16 01:36:18;;;;;;;17.88;9.02;;;28.40;78.60;;;;;;5104722;28;20084;-46
2021/11/16 01:38:45;;;;;;;18.33;10.30;;;28.40;78.40;;;;;;5104907;28;20032;-45
2021/11/16 01:41:12;;;;;;;14.23;8.80;;;28.40;78.30;;;;;;5105046;28;20178;-44
2021/11/16 01:43:40;;;;;;;15.23;8.85;;;28.40;78.20;;;;;;5104901;28;20027;-42
2021/11/16 01:46:11;;;;;;;13.20;7.82;;;28.40;77.90;;;;;;5104796;28;20057;-50
2021/11/16 01:48:38;;;;;;;13.00;7.75;;;28.40;77.80;;;;;;5104772;28;20051;-43
2021/11/16 01:51:05;;;;;;;13.00;7.85;;;28.40;77.60;;;;;;5104672;28;20015;-46
2021/11/16 01:53:33;;;;;;;13.52;7.68;;;28.40;77.60;;;;;;5103538;28;20047;-47
2021/11/16 01:56:01;;;;;;;14.68;7.22;;;28.30;77.50;;;;;;5104390;28;20042;-44
2021/11/16 01:58:28;;;;;;;10.88;7.03;;;28.30;77.40;;;;;;5104795;28;20024;-46
2021/11/16 02:00:55;;;;;;;20.00;7.78;;;28.30;77.30;;;;;;5104416;28;20039;-44
2021/11/16 02:03:23;;;;;;;14.88;7.38;;;28.30;77.30;;;;;;5104219;28;20020;-45
2021/11/16 02:06:13;;;;;;;12.80;7.30;;;28.30;77.30;;;;;;5104333;28;20195;-50
2021/11/16 02:08:39;;;;;;;13.45;7.20;;;28.20;77.20;;;;;;5104530;28;20069;-48
2021/11/16 02:11:06;;;;;;;12.07;7.10;;;28.20;77.30;;;;;;5104641;28;20208;-47
2021/11/16 02:13:33;;;;;;;13.15;7.00;;;28.30;77.40;;;;;;5096130;28;20332;-46
2021/11/16 02:16:00;;;;;;;12.77;6.20;;;28.20;77.20;;;;;;5104048;28;20026;-49
2021/11/16 02:18:27;;;;;;;11.95;6.32;;;28.20;77.30;;;;;;5104440;28;20020;-55
2021/11/16 02:20:54;;;;;;;12.65;6.68;;;28.20;77.30;;;;;;5104305;28;20016;-50
2021/11/16 02:23:22;;;;;;;10.35;6.40;;;28.10;77.40;;;;;;5103515;28;20069;-45
2021/11/16 02:25:50;;;;;;;11.35;6.18;;;28.20;77.40;;;;;;5104157;28;20020;-48
2021/11/16 02:28:18;;;;;;;12.60;6.22;;;28.20;77.30;;;;;;5104301;28;20028;-45
2021/11/16 02:30:46;;;;;;;11.57;6.10;;;28.20;77.20;;;;;;5104024;28;20024;-45
2021/11/16 02:33:14;;;;;;;10.55;5.75;;;28.20;77.00;;;;;;5104150;28;20125;-49
2021/11/16 02:35:42;;;;;;;11.95;6.75;;;28.20;76.90;;;;;;5103946;28;20083;-44
2021/11/16 02:38:08;;;;;;;10.82;7.57;;;28.10;76.80;;;;;;5113483;28;20330;-47
2021/11/16 02:40:35;;;;;;;12.43;7.80;;;28.20;76.80;;;;;;5104074;28;20186;-49
2021/11/16 02:43:03;;;;;;;9.80;7.28;;;28.20;76.70;;;;;;5104220;28;20024;-46
2021/11/16 02:45:29;;;;;;;13.40;8.07;;;28.20;76.60;;;;;;5103934;28;20197;-50
2021/11/16 02:47:56;;;;;;;13.63;9.05;;;28.10;76.40;;;;;;5104005;28;20031;-45
2021/11/16 02:50:24;;;;;;;10.68;7.28;;;28.10;76.40;;;;;;5103970;28;20016;-44
2021/11/16 02:52:51;;;;;;;13.82;7.80;;;28.10;76.40;;;;;;5103688;28;20044;-44
2021/11/16 02:55:18;;;;;;;18.92;11.18;;;28.10;76.50;;;;;;5105269;28;20036;-45
2021/11/16 02:57:45;;;;;;;17.08;9.75;;;28.10;76.40;;;;;;5110297;28;20178;-50
2021/11/16 03:00:16;;;;;;;14.45;9.85;;;28.10;76.50;;;;;;5097637;28;20012;-52
2021/11/16 03:02:45;;;;;;;14.32;8.93;;;28.10;76.40;;;;;;5103572;28;20016;-46
2021/11/16 03:05:12;;;;;;;18.30;9.00;;;28.10;76.30;;;;;;5142484;28;20015;-40
2021/11/16 03:07:45;;;;;;;10.75;8.13;;;28.00;76.10;;;;;;5144502;27;20046;-48
2021/11/16 03:10:13;;;;;;;8.30;6.80;;;28.00;76.00;;;;;;5139244;27;20064;-47
2021/11/16 03:12:40;;;;;;;10.15;7.38;;;28.10;76.10;;;;;;5133226;28;20212;-44
2021/11/16 03:15:08;;;;;;;10.60;6.95;;;28.00;76.00;;;;;;5140462;28;20023;-45
2021/11/16 03:17:34;;;;;;;9.32;6.40;;;28.00;75.80;;;;;;5144749;27;20022;-46
2021/11/16 03:20:07;;;;;;;10.30;6.57;;;28.00;75.90;;;;;;5125455;27;20047;-43
2021/11/16 03:22:41;;;;;;;;;;;28.00;75.80;;;;;;5113351;28;20075;-52
2021/11/16 03:25:09;;;;;;;10.05;6.50;;;28.00;75.70;;;;;;5107589;28;19908;-42
2021/11/16 03:27:39;;;;;;;11.57;7.15;;;27.90;75.80;;;;;;5110257;28;20023;-45
2021/11/16 03:30:06;;;;;;;9.60;6.60;;;28.00;76.00;;;;;;5103451;28;20071;-43
2021/11/16 03:32:36;;;;;;;12.07;7.28;;;28.00;76.00;;;;;;5106496;28;20180;-43
2021/11/16 03:35:05;;;;;;;10.10;6.55;;;27.90;75.90;;;;;;5109628;28;20316;-46
2021/11/16 03:37:40;;;;;;;12.32;6.05;;;27.90;76.00;;;;;;5111998;28;20050;-43
2021/11/16 03:40:08;;;;;;;8.25;5.88;;;27.90;75.90;;;;;;5109747;28;20020;-49
2021/11/16 03:42:42;;;;;;;8.63;5.85;;;27.90;75.90;;;;;;5115867;28;20035;-51
2021/11/16 03:45:10;;;;;;;10.10;6.15;;;27.90;75.90;;;;;;5106826;28;20385;-49
2021/11/16 03:47:36;;;;;;;12.35;5.60;;;27.90;75.70;;;;;;5105607;28;20028;-43
2021/11/16 03:50:07;;;;;;;9.45;6.10;;;28.00;75.80;;;;;;5106943;28;20020;-44
2021/11/16 03:52:38;;;;;;;11.77;5.85;;;27.90;75.70;;;;;;5106645;28;20051;-52
2021/11/16 03:55:06;;;;;;;12.63;5.93;;;27.90;75.80;;;;;;5106603;28;20031;-49
2021/11/16 03:57:34;;;;;;;9.40;5.90;;;27.90;75.80;;;;;;5106296;28;20576;-45
2021/11/16 04:00:03;;;;;;;9.13;5.75;;;27.90;75.70;;;;;;5099420;28;20217;-48
2021/11/16 04:02:30;;;;;;;7.28;5.10;;;27.90;75.80;;;;;;5106475;28;20036;-41
2021/11/16 04:04:56;;;;;;;10.52;5.68;;;27.90;75.80;;;;;;5107971;28;20087;-44
2021/11/16 04:07:23;;;;;;;7.32;5.55;;;27.90;75.90;;;;;;5118001;28;20246;-43
2021/11/16 04:09:49;;;;;;;8.43;5.57;;;27.90;75.80;;;;;;5127188;28;20035;-51
2021/11/16 04:12:17;;;;;;;10.18;5.43;;;27.80;75.80;;;;;;5126989;28;20193;-45
2021/11/16 04:14:43;;;;;;;6.60;4.90;;;27.80;76.40;;;;;;5127322;28;20304;-43
2021/11/16 04:17:10;;;;;;;9.82;5.30;;;27.80;76.20;;;;;;5126775;28;20092;-49
2021/11/16 04:19:36;;;;;;;9.77;5.55;;;27.80;76.30;;;;;;5127289;28;20092;-43
2021/11/16 04:22:04;;;;;;;7.00;5.07;;;27.70;76.40;;;;;;5126982;28;20026;-44
2021/11/16 04:24:31;;;;;;;7.53;5.22;;;27.80;76.70;;;;;;5127103;27;20204;-46
2021/11/16 04:26:58;;;;;;;12.50;5.45;;;27.70;76.60;;;;;;5126744;28;20086;-47
2021/11/16 04:29:24;;;;;;;11.82;5.45;;;27.70;76.60;;;;;;5127007;28;20072;-43
2021/11/16 04:31:51;;;;;;;11.02;5.68;;;27.70;76.60;;;;;;5126386;28;20026;-48
2021/11/16 04:34:18;;;;;;;10.18;4.97;;;27.70;76.70;;;;;;5126472;28;20323;-44
2021/11/16 04:36:46;;;;;;;9.27;5.47;;;27.70;76.60;;;;;;5126547;28;20090;-45
2021/11/16 04:39:13;;;;;;;7.03;5.22;;;27.70;76.70;;;;;;5126609;28;20019;-43
2021/11/16 04:41:40;;;;;;;9.50;4.85;;;27.70;76.70;;;;;;5126404;28;20024;-43
2021/11/16 04:44:08;;;;;;;10.43;5.45;;;27.70;76.60;;;;;;5126770;28;20312;-47
2021/11/16 04:46:34;;;;;;;12.43;5.28;;;27.70;76.40;;;;;;5125211;28;20024;-49
2021/11/16 04:54:20;;;;;;;6.30;5.53;;;27.70;76.20;;;;;;5126211;27;20044;-45
2021/11/16 04:59:55;;;;;;;8.50;5.90;;;27.60;76.50;;;;;;5126495;28;20023;-45
2021/11/16 05:02:37;;;;;;;9.63;5.82;;;27.60;76.70;;;;;;5125832;28;20023;-44
2021/11/16 05:05:22;;;;;;;8.15;5.65;;;27.60;76.80;;;;;;5125965;28;20028;-48
2021/11/16 05:07:58;;;;;;;8.43;5.50;;;27.60;77.20;;;;;;5122947;28;20047;-45
2021/11/16 05:10:25;;;;;;;7.40;5.72;;;27.60;77.10;;;;;;5121712;28;20045;-45
2021/11/16 05:12:54;;;;;;;9.55;5.00;;;27.50;77.00;;;;;;5125724;28;20174;-43
2021/11/16 05:15:21;;;;;;;9.43;5.50;;;27.50;77.10;;;;;;5125649;28;20251;-45
2021/11/16 05:17:49;;;;;;;7.65;5.18;;;27.50;77.30;;;;;;5125635;28;20084;-47
2021/11/16 05:20:18;;;;;;;8.65;5.32;;;27.40;77.50;;;;;;5125529;28;20015;-48
2021/11/16 05:22:48;;;;;;;9.60;5.80;;;27.40;77.60;;;;;;5123324;28;20091;-47
2021/11/16 05:25:15;;;;;;;9.40;5.30;;;27.40;77.80;;;;;;5120177;28;20342;-47
2021/11/16 05:27:42;;;;;;;9.68;5.75;;;27.40;77.80;;;;;;5125285;28;20326;-50
2021/11/16 05:30:12;;;;;;;9.43;5.10;;;27.40;77.80;;;;;;5124084;28;20030;-46
2021/11/16 05:32:40;;;;;;;11.48;5.53;;;27.40;77.80;;;;;;5115393;27;20019;-45
2021/11/16 05:35:11;;;;;;;11.55;6.00;;;27.40;77.70;;;;;;5134306;27;20248;-47
2021/11/16 05:37:40;;;;;;;7.50;5.60;;;27.40;77.80;;;;;;5145647;27;20011;-42
2021/11/16 05:40:07;;;;;;;8.05;5.40;;;27.40;78.00;;;;;;5145711;27;20050;-42
2021/11/16 05:42:34;;;;;;;8.27;5.68;;;27.40;78.30;;;;;;5145611;27;20378;-41
2021/11/16 05:45:03;;;;;;;9.05;5.70;;;27.40;78.40;;;;;;5140618;27;20031;-43
2021/11/16 05:47:30;;;;;;;11.15;5.82;;;27.40;78.40;;;;;;5120855;27;20068;-41
2021/11/16 05:49:56;;;;;;;10.43;5.57;;;27.40;78.30;;;;;;5145503;27;20027;-46
2021/11/16 05:52:23;;;;;;;8.98;5.32;;;27.40;78.30;;;;;;5145511;27;20035;-43
2021/11/16 05:54:52;;;;;;;14.77;5.75;;;27.40;78.30;;;;;;5145943;27;20208;-48
2021/11/16 05:57:19;;;;;;;9.70;5.25;;;27.40;78.50;;;;;;5134130;27;20034;-43
2021/11/16 05:59:45;;;;;;;10.38;5.60;;;27.30;78.50;;;;;;5124133;27;20020;-47
2021/11/16 06:02:12;;;;;;;6.28;5.28;;;27.30;78.60;;;;;;5113271;28;20012;-46
2021/11/16 06:04:40;;;;;;;6.40;5.55;;;27.30;78.70;;;;;;5104243;28;20225;-40
2021/11/16 06:07:08;;;;;;;10.75;5.47;;;27.30;78.80;;;;;;5104330;28;20030;-40
2021/11/16 06:09:35;;;;;;;7.55;5.40;;;27.30;79.00;;;;;;5104788;28;20028;-44
2021/11/16 06:12:03;;;;;;;9.40;5.80;;;27.30;78.90;;;;;;5104200;28;20213;-40
2021/11/16 06:14:30;;;;;;;7.70;5.80;;;27.30;79.20;;;;;;5104635;28;20028;-43
2021/11/16 06:16:58;;;;;;;7.03;5.35;;;27.30;79.40;;;;;;5104195;28;20016;-41
2021/11/16 06:19:27;;;;;;;10.70;5.40;;;27.30;79.10;;;;;;5104524;28;20077;-45
2021/11/16 06:21:54;;;;;;;11.30;5.55;;;27.20;79.00;;;;;;5104159;28;20012;-46
2021/11/16 06:24:21;;;;;;;12.40;6.03;;;27.30;79.10;;;;;;5104477;28;20035;-52
2021/11/16 06:26:48;;;;;;;11.52;5.72;;;27.30;79.10;;;;;;5104105;28;20020;-44
2021/11/16 06:29:15;;;;;;;10.13;5.57;;;27.20;79.10;;;;;;5104483;28;20126;-48
2021/11/16 06:31:41;;;;;;;12.40;5.63;;;27.20;79.20;;;;;;5104011;28;20023;-41
2021/11/16 06:34:09;;;;;;;11.65;5.05;;;27.20;79.10;;;;;;5116621;28;20055;-45
2021/11/16 06:36:39;;;;;;;9.10;5.22;;;27.20;79.00;;;;;;5145204;27;20026;-45
2021/11/16 06:39:12;;;;;;;12.65;5.68;;;27.20;79.10;;;;;;5145257;27;20129;-42
2021/11/16 06:41:39;;;;;;;10.73;5.50;;;27.20;79.20;;;;;;5144931;27;20330;-43
2021/11/16 06:44:07;;;;;;;8.13;5.13;;;27.20;79.20;;;;;;5145252;27;20027;-43
2021/11/16 06:46:35;;;;;;;12.02;5.70;;;27.20;79.20;;;;;;5144755;27;20012;-48
2021/11/16 06:49:04;;;;;;;9.52;5.22;;;27.20;79.20;;;;;;5145319;27;20377;-44
2021/11/16 06:51:37;;;;;;;9.05;5.40;;;27.20;79.20;;;;;;5144830;27;20319;-46
2021/11/16 06:54:09;;;;;;;13.05;5.35;;;27.20;79.20;;;;;;5144782;27;20070;-42
2021/11/16 06:56:38;;;;;;;7.32;5.18;;;27.20;79.20;;;;;;5145008;27;20303;-44
2021/11/16 06:59:05;;;;;;;7.75;5.82;;;27.20;79.30;;;;;;5145121;27;20284;-47
2021/11/16 07:01:34;;;;;;;8.18;5.30;;;27.10;79.20;;;;;;5144731;27;20018;-41
2021/11/16 07:04:05;;;;;;;6.53;5.15;;;27.10;79.20;;;;;;5144984;27;20323;-46
2021/11/16 07:06:31;;;;;;;9.70;5.82;;;27.20;79.20;;;;;;5144620;27;20026;-49
2021/11/16 07:08:58;;;;;;;8.20;5.45;;;27.20;79.20;;;;;;5144699;27;20019;-48
2021/11/16 07:11:27;;;;;;;6.32;5.00;;;27.20;79.30;;;;;;5148120;27;20068;-41
2021/11/16 07:14:00;;;;;;;7.93;5.45;;;27.20;79.30;;;;;;5148673;27;20035;-45
2021/11/16 07:16:30;;;;;;;6.60;5.68;;;27.20;79.20;;;;;;5148484;27;20023;-52
2021/11/16 07:18:59;;;;;;;9.70;5.38;;;27.20;79.10;;;;;;5148742;27;20023;-45
2021/11/16 07:21:27;;;;;;;8.25;5.00;;;27.20;79.20;;;;;;5148244;27;20060;-44
2021/11/16 07:24:24;;;;;;;7.70;5.25;;;27.20;79.50;;;;;;5148840;27;20216;-46
2021/11/16 07:26:57;;;;;;;5.68;5.10;;;27.20;79.30;;;;;;5148361;27;20301;-51
2021/11/16 07:29:32;;;;;;;;;;;27.20;79.50;;;;;;5149112;27;20095;-47
2021/11/16 07:31:58;;;;;;;7.88;4.88;;;27.20;79.40;;;;;;5148449;27;19966;-48
2021/11/16 07:34:28;;;;;;;7.75;5.30;;;27.20;79.40;;;;;;5148622;27;20230;-42
2021/11/16 07:37:05;;;;;;;6.28;4.90;;;27.20;79.20;;;;;;5148387;27;20015;-50
2021/11/16 07:39:44;;;;;;;5.40;4.90;;;27.20;79.10;;;;;;5148499;27;20023;-43
2021/11/16 07:42:11;;;;;;;6.57;5.20;;;27.20;79.10;;;;;;5148173;27;20271;-50
2021/11/16 07:44:38;;;;;;;5.85;5.25;;;27.20;78.80;;;;;;5148266;27;20031;-44
2021/11/16 07:47:05;;;;;;;8.10;5.60;;;27.20;78.60;;;;;;5148291;27;20019;-44
2021/11/16 07:49:32;;;;;;;7.38;4.85;;;27.20;78.60;;;;;;5147973;27;20029;-46
2021/11/16 07:51:59;;;;;;;7.72;4.90;;;27.20;78.40;;;;;;5148102;27;20096;-51
2021/11/16 07:54:31;;;;;;;6.18;4.93;;;27.20;78.30;;;;;;5148428;27;20099;-46
2021/11/16 07:57:06;;;;;;;5.55;4.35;;;27.20;78.20;;;;;;5147898;27;20078;-42
2021/11/16 07:59:34;;;;;;;9.02;5.13;;;27.20;78.00;;;;;;5148173;27;20039;-47
2021/11/16 08:02:12;;;;;;;5.80;5.10;;;27.20;77.90;;;;;;5147745;27;20018;-44
2021/11/16 08:04:45;;;;;;;7.45;5.20;;;27.20;77.90;;;;;;5148028;27;20219;-47
2021/11/16 08:07:34;;;;;;;8.23;5.13;;;27.20;77.60;;;;;;5147570;27;20316;-45
2021/11/16 08:10:06;;;;;;;6.32;4.82;;;27.20;77.60;;;;;;5147798;27;20098;-44
2021/11/16 08:12:38;;;;;;;10.02;5.07;;;27.20;77.70;;;;;;5146974;27;20023;-44
2021/11/16 08:15:12;;;;;;;7.40;4.50;;;27.20;77.60;;;;;;5140260;27;20242;-48
2021/11/16 08:17:40;;;;;;;7.43;5.05;;;27.20;77.60;;;;;;5147354;27;20023;-46
2021/11/16 08:20:13;;;;;;;7.22;4.80;;;27.20;77.40;;;;;;5147334;27;20016;-44
2021/11/16 08:22:40;;;;;;;6.25;5.18;;;27.20;77.30;;;;;;5147406;27;20198;-43
2021/11/16 08:25:09;;;;;;;7.53;4.90;;;27.20;77.50;;;;;;5147421;27;20018;-44
2021/11/16 08:27:38;;;;;;;5.90;4.65;;;27.20;77.80;;;;;;5146900;27;20034;-41
2021/11/16 08:30:10;;;;;;;8.32;4.80;;;27.20;77.60;;;;;;5147373;27;20077;-43
2021/11/16 08:32:40;;;;;;;5.93;4.70;;;27.20;78.00;;;;;;5146993;27;20019;-40
2021/11/16 08:35:15;;;;;;;6.57;5.00;;;27.20;77.90;;;;;;5146875;27;20015;-42
2021/11/16 08:37:42;;;;;;;11.05;5.20;;;27.10;77.80;;;;;;5145183;27;20090;-41
2021/11/16 08:40:21;;;;;;;5.25;4.43;;;27.20;77.90;;;;;;5140289;27;20076;-47
2021/11/16 08:43:02;;;;;;;7.05;4.70;;;27.10;77.80;;;;;;5146984;27;20038;-42
2021/11/16 08:45:32;;;;;;;6.43;4.55;;;27.10;77.70;;;;;;5146819;27;20066;-47
2021/11/16 08:48:10;;;;;;;7.10;4.32;;;27.10;77.80;;;;;;5146950;27;20023;-43
2021/11/16 08:50:44;;;;;;;7.30;4.80;;;27.10;77.80;;;;;;5146794;27;20023;-44
2021/11/16 08:53:14;;;;;;;12.60;4.78;;;27.10;77.90;;;;;;5146648;27;20118;-46
2021/11/16 08:55:42;;;;;;;6.82;4.85;;;27.10;77.90;;;;;;5146382;27;20027;-44
2021/11/16 08:58:12;;;;;;;8.68;4.90;;;27.10;77.90;;;;;;5146525;27;20252;-46
2021/11/16 09:00:46;;;;;;;8.60;4.82;;;27.10;77.90;;;;;;5146506;27;20019;-47
2021/11/16 09:03:26;;;;;;;6.63;4.55;;;27.10;78.00;;;;;;5146822;27;20019;-41
2021/11/16 09:05:54;;;;;;;6.72;4.60;;;27.10;78.20;;;;;;5146411;27;20093;-49
2021/11/16 09:08:25;;;;;;;7.15;4.70;;;27.10;78.20;;;;;;5146270;27;20023;-45
2021/11/16 09:11:00;;;;;;;10.15;5.03;;;27.10;78.20;;;;;;5146190;27;20372;-51
2021/11/16 09:13:32;;;;;;;9.80;4.75;;;27.00;78.20;;;;;;5146321;27;20037;-45
2021/11/16 09:16:10;;;;;;;5.35;4.50;;;27.10;78.30;;;;;;5146175;27;20027;-42
2021/11/16 09:18:39;;;;;;;8.55;5.53;;;27.00;78.10;;;;;;5146246;27;20030;-41
2021/11/16 09:21:23;;;;;;;8.90;5.10;;;27.00;78.10;;;;;;5146161;27;20087;-45
2021/11/16 09:23:51;;;;;;;11.25;5.07;;;27.10;78.20;;;;;;5146439;27;20060;-41
2021/11/16 09:29:02;;;;;;;9.43;4.82;;;27.00;78.10;;;;;;5146059;27;20019;-48
2021/11/16 09:31:39;;;;;;;6.87;5.30;;;27.00;78.20;;;;;;5146128;27;20023;-44
2021/11/16 09:34:18;;;;;;;9.70;4.93;;;27.00;78.10;;;;;;5145851;27;20205;-41
2021/11/16 09:36:56;;;;;;;6.05;5.05;;;27.00;77.90;;;;;;5145631;27;20027;-44
2021/11/16 09:39:26;;;;;;;6.93;4.80;;;27.00;77.90;;;;;;5146561;27;20022;-55
2021/11/16 09:42:03;;;;;;;10.57;5.47;;;27.00;77.90;;;;;;5145930;27;20019;-45
2021/11/16 09:44:32;;;;;;;7.22;5.43;;;27.00;78.00;;;;;;5145947;27;20034;-41
2021/11/16 09:47:28;;;;;;;12.05;5.28;;;27.00;77.90;;;;;;5145684;27;20043;-41
2021/11/16 09:50:02;;;;;;;8.98;5.30;;;27.00;78.40;;;;;;5090301;27;20245;-46
2021/11/16 09:52:51;;;;;;;8.02;5.43;;;27.00;78.50;;;;;;5144198;27;20231;-47
2021/11/16 09:55:35;;;;;;;8.75;5.65;;;27.00;78.60;;;;;;5145524;27;20076;-43
2021/11/16 09:58:07;;;;;;;8.73;5.20;;;27.00;78.70;;;;;;5140651;27;20085;-39
2021/11/16 10:00:37;;;;;;;12.00;5.65;;;27.00;78.80;;;;;;5142622;27;20068;-42
2021/11/16 10:03:15;;;;;;;13.60;6.75;;;27.00;79.10;;;;;;5145618;27;20182;-45
2021/11/16 10:05:47;;;;;;;9.52;5.70;;;26.90;79.00;;;;;;5145118;27;20049;-43
2021/11/16 10:08:15;;;;;;;9.23;5.82;;;26.90;79.10;;;;;;5139267;27;20038;-39
2021/11/16 10:10:46;;;;;;;12.15;6.10;;;26.90;79.20;;;;;;5143890;27;20046;-43
2021/11/16 10:13:16;;;;;;;13.10;6.30;;;26.90;79.20;;;;;;5145436;27;20023;-45
2021/11/16 10:15:49;;;;;;;14.60;6.28;;;26.90;79.50;;;;;;5145103;27;20022;-48
2021/11/16 10:18:18;;;;;;;11.10;6.18;;;26.90;79.70;;;;;;5144873;27;20024;-46
2021/11/16 10:20:47;;;;;;;17.08;6.68;;;26.90;79.70;;;;;;5145280;27;20022;-46
2021/11/16 10:23:28;;;;;;;11.30;5.88;;;26.90;79.90;;;;;;5145425;27;20030;-42
2021/11/16 10:25:58;;;;;;;12.93;6.07;;;26.90;80.00;;;;;;5144906;27;20086;-43
2021/11/16 10:28:25;;;;;;;10.38;6.13;;;26.90;79.90;;;;;;5145045;27;20096;-43
2021/11/16 10:30:58;;;;;;;21.13;6.60;;;26.90;80.20;;;;;;5144712;27;20164;-46
2021/11/16 10:33:27;;;;;;;14.43;6.65;;;26.80;80.50;;;;;;5144989;27;20034;-44
2021/11/16 10:36:01;;;;;;;14.90;6.72;;;26.80;80.50;;;;;;5144671;27;20049;-45
2021/11/16 10:41:14;;;;;;;17.30;6.57;;;26.80;80.60;;;;;;5101346;27;20413;-45
2021/11/16 10:43:55;;;;;;;15.52;7.45;;;26.80;81.10;;;;;;5101236;28;20036;-43
2021/11/16 10:46:24;;;;;;;22.52;7.28;;;26.80;81.20;;;;;;5101538;28;20304;-39
2021/11/16 10:48:54;;;;;;;30.88;7.90;;;26.80;81.10;;;;;;5101046;28;20026;-44
2021/11/16 10:51:25;;;;;;;52.55;8.70;;;26.80;81.10;;;;;;5101372;28;20202;-52
2021/11/16 10:53:54;;;;;;;30.85;7.90;;;26.80;81.40;;;;;;5101300;28;20346;-47
2021/11/16 10:56:28;;;;;;;21.13;7.65;;;26.80;81.30;;;;;;5101272;28;20035;-49
2021/11/16 10:59:02;;;;;;;20.00;7.90;;;26.80;81.40;;;;;;5100930;28;20099;-47
2021/11/16 11:01:29;;;;;;;32.00;8.65;;;26.80;81.40;;;;;;5101183;28;20021;-47
2021/11/16 11:03:57;;;;;;;19.58;7.63;;;26.80;81.40;;;;;;5101218;28;20084;-45
2021/11/16 11:06:25;;;;;;;29.63;8.02;;;26.90;81.50;;;;;;5101066;28;20062;-48
2021/11/16 11:09:00;;;;;;;27.17;8.10;;;26.80;81.50;;;;;;5100876;28;20035;-49
2021/11/16 11:11:34;;;;;;;31.45;8.05;;;26.80;81.60;;;;;;5100940;28;20317;-42
2021/11/16 11:14:03;;;;;;;23.20;7.75;;;26.90;81.70;;;;;;5101041;28;20182;-43
2021/11/16 11:16:34;;;;;;;25.52;9.35;;;26.90;81.70;;;;;;5101067;28;20313;-47
2021/11/16 11:19:02;;;;;;;22.75;9.35;;;26.90;81.50;;;;;;5100669;28;20024;-43
2021/11/16 11:21:31;;;;;;;23.95;8.13;;;26.90;81.50;;;;;;5100593;28;20029;-46
2021/11/16 11:24:06;;;;;;;25.63;8.50;;;26.90;81.90;;;;;;5100580;28;20036;-46
2021/11/16 11:26:40;;;;;;;20.17;8.30;;;26.90;81.90;;;;;;5099953;28;20087;-44
2021/11/16 11:29:23;;;;;;;26.73;8.77;;;26.90;81.70;;;;;;5100680;28;20024;-48
2021/11/16 11:31:57;;;;;;;22.88;8.38;;;26.90;81.80;;;;;;5100413;28;20028;-44
2021/11/16 11:34:36;;;;;;;31.23;8.73;;;26.90;81.80;;;;;;5100625;28;20205;-44
2021/11/16 11:37:10;;;;;;;15.75;7.93;;;27.00;81.80;;;;;;5100152;28;20048;-43
2021/11/16 11:39:37;;;;;;;19.73;7.38;;;27.00;81.90;;;;;;5100452;28;20040;-44
2021/11/16 11:42:09;;;;;;;16.85;7.20;;;27.00;81.90;;;;;;5098122;28;20058;-44
2021/11/16 11:44:43;;;;;;;17.80;7.40;;;27.00;81.80;;;;;;5100104;28;20031;-41
2021/11/16 11:47:10;;;;;;;20.52;7.00;;;27.00;81.80;;;;;;5100179;28;20277;-42
2021/11/16 11:49:37;;;;;;;22.85;7.35;;;27.10;81.80;;;;;;5100241;28;20335;-52
2021/11/16 11:52:05;;;;;;;17.42;7.25;;;27.10;81.80;;;;;;5088856;28;20028;-44
2021/11/16 11:54:32;;;;;;;17.08;7.63;;;27.10;81.80;;;;;;5086778;28;20035;-47
2021/11/16 11:56:58;;;;;;;14.20;7.28;;;27.20;82.00;;;;;;5086613;28;20054;-43
2021/11/16 11:59:26;;;;;;;13.57;7.25;;;27.10;81.70;;;;;;5087039;28;20032;-43
2021/11/16 12:01:54;;;;;;;19.63;7.25;;;27.20;81.90;;;;;;5086482;28;20247;-43
2021/11/16 12:04:21;;;;;;;17.80;7.28;;;27.20;81.80;;;;;;5086429;28;20126;-46
2021/11/16 12:06:53;;;;;;;21.67;7.07;;;27.20;81.60;;;;;;5086575;28;20088;-46
2021/11/16 12:09:21;;;;;;;20.00;7.38;;;27.20;81.40;;;;;;5086539;28;20078;-47
2021/11/16 12:11:48;;;;;;;25.45;7.78;;;27.20;81.20;;;;;;5086192;28;20020;-41
2021/11/16 12:14:23;;;;;;;19.40;7.63;;;27.20;81.10;;;;;;5085953;28;20040;-44
2021/11/16 12:17:04;;;;;;;23.23;7.38;;;27.30;81.10;;;;;;5086147;28;20035;-41
2021/11/16 12:19:43;;;;;;;20.15;7.50;;;27.30;81.00;;;;;;5086244;28;20304;-44
2021/11/16 12:22:16;;;;;;;18.00;7.43;;;27.30;80.70;;;;;;5082941;28;20304;-40
2021/11/16 12:24:46;;;;;;;18.75;7.40;;;27.30;80.80;;;;;;5083515;28;20029;-44
2021/11/16 12:27:15;;;;;;;16.48;7.35;;;27.40;80.70;;;;;;5086008;28;20332;-49
2021/11/16 12:29:51;;;;;;;18.35;7.30;;;27.40;80.70;;;;;;5085664;28;20056;-45
2021/11/16 12:32:27;;;;;;;14.68;7.00;;;27.40;80.60;;;;;;5085018;28;20146;-42
2021/11/16 12:34:57;;;;;;;13.00;6.82;;;27.50;80.50;;;;;;5085914;28;20039;-49
2021/11/16 12:37:33;;;;;;;17.92;6.55;;;27.50;80.50;;;;;;5085835;28;20058;-45
2021/11/16 12:40:11;;;;;;;12.55;6.25;;;27.50;80.40;;;;;;5085246;28;20067;-48
2021/11/16 12:42:40;;;;;;;17.17;6.22;;;27.50;80.40;;;;;;5084937;28;20025;-45
2021/11/16 12:45:10;;;;;;;13.32;6.32;;;27.60;80.50;;;;;;5085957;28;20027;-42
2021/11/16 12:47:58;;;;;;;13.35;6.95;;;27.60;80.70;;;;;;5085377;28;20024;-46
2021/11/16 12:50:26;;;;;;;16.45;6.50;;;27.60;80.50;;;;;;5086029;28;20264;-41
2021/11/16 12:52:54;;;;;;;11.10;6.57;;;27.60;80.60;;;;;;5085218;28;20023;-45
2021/11/16 12:55:27;;;;;;;10.77;6.28;;;27.60;80.70;;;;;;5085186;28;20091;-44
2021/11/16 12:58:18;;;;;;;12.80;6.18;;;27.70;80.80;;;;;;5085018;28;20032;-44
2021/11/16 13:00:44;;;;;;;10.50;6.15;;;27.70;80.70;;;;;;5085441;28;20039;-44
2021/11/16 13:03:11;;;;;;;11.30;6.20;;;27.70;80.80;;;;;;5083159;28;20056;-44
2021/11/16 13:05:45;;;;;;;13.85;6.05;;;27.70;80.80;;;;;;5085515;28;20027;-47
2021/11/16 13:08:14;;;;;;;15.80;6.38;;;27.70;80.80;;;;;;5085080;28;20074;-46
2021/11/16 13:10:50;;;;;;;14.80;5.72;;;27.70;80.90;;;;;;5084969;28;20281;-49